createdAt,value
2023-02-16T00:01:59.350Z,101719.63
2023-02-16T00:04:31.287Z,101722.41
2023-02-16T00:06:58.275Z,101718.34
2023-02-16T00:09:25.477Z,101720.28
2023-02-16T00:12:11.656Z,101720.00
2023-02-16T00:14:39.815Z,101717.94
2023-02-16T00:17:07.027Z,101710.16
2023-02-16T00:19:38.695Z,101717.75
2023-02-16T00:22:06.614Z,101719.13
2023-02-16T00:24:33.100Z,101706.13
2023-02-16T00:27:00.359Z,101713.09
2023-02-16T00:29:36.417Z,101709.59
2023-02-16T00:32:05.736Z,101719.00
2023-02-16T00:34:36.389Z,101720.78
2023-02-16T00:37:05.620Z,101714.59
2023-02-16T00:39:32.247Z,101711.31
2023-02-16T00:42:02.122Z,101706.91
2023-02-16T00:44:44.181Z,101696.41
2023-02-16T00:47:27.280Z,101696.59
2023-02-16T00:49:54.999Z,101698.47
2023-02-16T00:52:37.634Z,101696.91
2023-02-16T00:55:07.881Z,101694.28
2023-02-16T00:57:39.853Z,101697.66
2023-02-16T01:00:28.331Z,101691.56
2023-02-16T01:03:00.653Z,101697.50
2023-02-16T01:05:27.557Z,101694.94
2023-02-16T01:08:12.619Z,101697.44
2023-02-16T01:10:58.933Z,101685.38
2023-02-16T01:13:28.627Z,101682.59
2023-02-16T01:15:55.411Z,101691.06
2023-02-16T01:18:21.890Z,101683.78
2023-02-16T01:20:49.352Z,101689.81
2023-02-16T01:23:15.897Z,101683.91
2023-02-16T01:25:42.646Z,101688.22
2023-02-16T01:28:29.470Z,101690.69
2023-02-16T01:30:56.025Z,101678.53
2023-02-16T01:33:22.596Z,101687.75
2023-02-16T01:35:50.667Z,101684.13
2023-02-16T01:38:23.032Z,101679.75
2023-02-16T01:41:00.487Z,101681.47
2023-02-16T01:43:36.893Z,101689.28
2023-02-16T01:46:14.071Z,101694.38
2023-02-16T01:48:40.631Z,101684.75
2023-02-16T01:51:19.042Z,101677.97
2023-02-16T01:53:56.252Z,101672.88
2023-02-16T01:56:35.794Z,101671.94
2023-02-16T01:59:11.921Z,101672.00
2023-02-16T02:01:51.064Z,101668.56
2023-02-16T02:04:45.658Z,101671.00
2023-02-16T02:07:19.865Z,101669.19
2023-02-16T02:10:01.944Z,101665.75
2023-02-16T02:12:42.919Z,101668.59
2023-02-16T02:15:11.249Z,101673.41
2023-02-16T02:17:37.670Z,101674.16
2023-02-16T02:20:21.848Z,101668.97
2023-02-16T02:23:30.647Z,101667.31
2023-02-16T02:26:15.432Z,101662.34
2023-02-16T02:28:57.145Z,101659.72
2023-02-16T02:31:56.577Z,101664.94
2023-02-16T02:34:38.277Z,101659.69
2023-02-16T02:37:14.431Z,101669.16
2023-02-16T02:40:19.359Z,101662.44
2023-02-16T02:43:07.039Z,101664.13
2023-02-16T02:45:42.419Z,101655.50
2023-02-16T02:48:08.950Z,101662.50
2023-02-16T02:51:15.859Z,101654.59
2023-02-16T02:53:50.253Z,101652.19
2023-02-16T02:56:36.893Z,101643.66
2023-02-16T02:59:26.793Z,101639.09
2023-02-16T03:01:59.196Z,101646.72
2023-02-16T03:04:28.722Z,101642.00
2023-02-16T03:06:58.809Z,101638.28
2023-02-16T03:09:25.746Z,101634.66
2023-02-16T03:12:12.691Z,101633.63
2023-02-16T03:14:48.017Z,101638.78
2023-02-16T03:17:36.490Z,101623.28
2023-02-16T03:20:27.395Z,101628.44
2023-02-16T03:23:12.612Z,101611.31
2023-02-16T03:25:57.920Z,101611.63
2023-02-16T03:28:46.161Z,101608.09
2023-02-16T03:31:18.971Z,101608.47
2023-02-16T03:33:46.997Z,101607.13
2023-02-16T03:36:13.753Z,101601.19
2023-02-16T03:38:40.300Z,101598.56
2023-02-16T03:41:06.947Z,101602.06
2023-02-16T03:43:33.628Z,101608.94
2023-02-16T03:46:00.266Z,101605.66
2023-02-16T03:48:26.755Z,101603.22
2023-02-16T03:50:53.204Z,101616.94
2023-02-16T03:53:19.629Z,101610.06
2023-02-16T03:55:47.536Z,101609.34
2023-02-16T03:58:17.455Z,101610.28
2023-02-16T04:00:44.057Z,101617.06
2023-02-16T04:03:11.408Z,101617.69
2023-02-16T04:05:38.486Z,101622.59
2023-02-16T04:08:05.875Z,101613.97
2023-02-16T04:10:32.561Z,101613.19
2023-02-16T04:12:59.024Z,101621.81
2023-02-16T04:15:28.578Z,101614.97
2023-02-16T04:17:55.208Z,101615.81
2023-02-16T04:20:25.625Z,101619.97
2023-02-16T04:22:52.985Z,101603.63
2023-02-16T04:25:20.395Z,101603.69
2023-02-16T04:27:49.067Z,101599.59
2023-02-16T04:30:24.626Z,101608.19
2023-02-16T04:32:51.294Z,101608.81
2023-02-16T04:35:18.366Z,101608.63
2023-02-16T04:37:45.331Z,101607.63
2023-02-16T04:40:13.976Z,101618.94
2023-02-16T04:42:44.942Z,101611.16
2023-02-16T04:45:11.936Z,101617.94
2023-02-16T04:47:38.472Z,101617.03
2023-02-16T04:50:05.712Z,101613.69
2023-02-16T04:52:32.411Z,101606.72
2023-02-16T04:54:58.937Z,101612.66
2023-02-16T04:57:25.827Z,101604.91
2023-02-16T04:59:52.221Z,101600.66
2023-02-16T05:02:18.747Z,101609.41
2023-02-16T05:04:45.238Z,101605.06
2023-02-16T05:07:11.770Z,101607.47
2023-02-16T05:09:38.173Z,101617.84
2023-02-16T05:12:23.324Z,101613.97
2023-02-16T05:14:50.004Z,101611.28
2023-02-16T05:17:23.720Z,101618.09
2023-02-16T05:19:53.180Z,101617.34
2023-02-16T05:22:20.515Z,101613.84
2023-02-16T05:24:47.304Z,101618.94
2023-02-16T05:27:20.192Z,101625.97
2023-02-16T05:29:46.717Z,101627.88
2023-02-16T05:32:13.296Z,101626.16
2023-02-16T05:34:40.019Z,101618.63
2023-02-16T05:37:07.025Z,101610.03
2023-02-16T05:39:33.619Z,101615.53
2023-02-16T05:42:00.184Z,101620.06
2023-02-16T05:44:26.636Z,101629.47
2023-02-16T05:46:53.170Z,101628.47
2023-02-16T05:49:19.779Z,101611.28
2023-02-16T05:51:46.333Z,101619.13
2023-02-16T05:54:17.461Z,101628.63
2023-02-16T05:56:50.797Z,101615.03
2023-02-16T05:59:17.826Z,101614.31
2023-02-16T06:01:48.531Z,101616.06
2023-02-16T06:04:17.056Z,101609.16
2023-02-16T06:06:44.035Z,101610.13
2023-02-16T06:09:10.624Z,101612.94
2023-02-16T06:11:37.181Z,101614.78
2023-02-16T06:14:09.611Z,101611.41
2023-02-16T06:16:38.149Z,101614.13
2023-02-16T06:19:05.611Z,101611.56
2023-02-16T06:21:32.996Z,101613.47
2023-02-16T06:23:59.751Z,101604.13
2023-02-16T06:26:26.499Z,101605.91
2023-02-16T06:28:53.133Z,101598.28
2023-02-16T06:31:20.010Z,101595.03
2023-02-16T06:33:47.585Z,101604.66
2023-02-16T06:36:14.699Z,101606.50
2023-02-16T06:38:41.502Z,101604.88
2023-02-16T06:41:08.042Z,101601.50
2023-02-16T06:43:34.593Z,101607.63
2023-02-16T06:46:01.173Z,101611.22
2023-02-16T06:48:27.921Z,101620.75
2023-02-16T06:50:54.537Z,101621.72
2023-02-16T06:53:21.137Z,101614.88
2023-02-16T06:55:50.643Z,101625.34
2023-02-16T06:58:17.118Z,101614.16
2023-02-16T07:00:43.729Z,101617.72
2023-02-16T07:03:10.346Z,101613.44
2023-02-16T07:05:36.844Z,101631.63
2023-02-16T07:08:03.528Z,101639.63
2023-02-16T07:10:43.677Z,101622.50
2023-02-16T07:13:15.502Z,101633.81
2023-02-16T07:15:41.962Z,101626.16
2023-02-16T07:18:08.366Z,101631.50
2023-02-16T07:20:34.811Z,101625.59
2023-02-16T07:23:01.320Z,101632.63
2023-02-16T07:25:27.820Z,101628.53
2023-02-16T07:27:57.098Z,101622.59
2023-02-16T07:30:23.631Z,101621.84
2023-02-16T07:32:50.198Z,101613.25
2023-02-16T07:35:16.740Z,101613.38
2023-02-16T07:37:43.228Z,101627.25
2023-02-16T07:40:10.164Z,101621.25
2023-02-16T07:42:36.610Z,101614.44
2023-02-16T07:45:03.204Z,101614.56
2023-02-16T07:47:29.863Z,101630.13
2023-02-16T07:49:56.394Z,101629.41
2023-02-16T07:52:22.818Z,101621.75
2023-02-16T07:54:49.308Z,101613.97
2023-02-16T07:57:15.806Z,101617.47
2023-02-16T07:59:42.378Z,101617.50
2023-02-16T08:02:15.506Z,101617.59
2023-02-16T08:04:42.268Z,101622.03
2023-02-16T08:07:14.625Z,101625.56
2023-02-16T08:09:41.436Z,101622.16
2023-02-16T08:12:13.386Z,101630.81
2023-02-16T08:14:40.290Z,101632.53
2023-02-16T08:17:09.091Z,101634.31
2023-02-16T08:19:37.150Z,101628.28
2023-02-16T08:22:05.913Z,101620.56
2023-02-16T08:24:34.128Z,101623.22
2023-02-16T08:27:03.807Z,101621.50
2023-02-16T08:29:30.713Z,101621.56
2023-02-16T08:31:57.709Z,101619.81
2023-02-16T08:34:25.307Z,101625.84
2023-02-16T08:36:57.199Z,101632.75
2023-02-16T08:39:26.678Z,101631.84
2023-02-16T08:41:54.260Z,101630.97
2023-02-16T08:44:22.609Z,101633.59
2023-02-16T08:46:50.644Z,101630.09
2023-02-16T08:49:18.753Z,101625.78
2023-02-16T08:51:50.849Z,101627.59
2023-02-16T08:54:24.321Z,101626.81
2023-02-16T08:56:50.815Z,101634.81
2023-02-16T08:59:19.428Z,101628.97
2023-02-16T09:01:46.619Z,101636.84
2023-02-16T09:04:14.043Z,101634.25
2023-02-16T09:06:42.734Z,101634.34
2023-02-16T09:09:09.923Z,101638.75
2023-02-16T09:11:37.286Z,101629.41
2023-02-16T09:14:04.834Z,101630.38
2023-02-16T09:16:35.417Z,101637.38
2023-02-16T09:19:02.827Z,101634.97
2023-02-16T09:21:33.684Z,101627.34
2023-02-16T09:24:02.361Z,101635.47
2023-02-16T09:26:32.800Z,101640.16
2023-02-16T09:29:00.965Z,101637.63
2023-02-16T09:31:30.938Z,101635.13
2023-02-16T09:34:14.322Z,101634.41
2023-02-16T09:36:40.842Z,101640.59
2023-02-16T09:39:08.090Z,101635.47
2023-02-16T09:41:48.390Z,101628.72
2023-02-16T09:44:32.456Z,101645.22
2023-02-16T09:47:03.431Z,101655.53
2023-02-16T09:49:38.111Z,101654.78
2023-02-16T09:52:13.487Z,101668.75
2023-02-16T09:54:49.162Z,101661.78
2023-02-16T09:57:41.821Z,101658.31
2023-02-16T10:00:33.073Z,101664.38
2023-02-16T10:03:05.493Z,101665.44
2023-02-16T10:05:47.183Z,101676.72
2023-02-16T10:08:30.081Z,101661.97
2023-02-16T10:11:04.755Z,101671.50
2023-02-16T10:13:42.440Z,101670.66
2023-02-16T10:16:17.036Z,101667.16
2023-02-16T10:18:50.348Z,101673.19
2023-02-16T10:21:24.471Z,101673.19
2023-02-16T10:23:56.675Z,101668.78
2023-02-16T10:26:32.534Z,101665.34
2023-02-16T10:29:03.569Z,101672.22
2023-02-16T10:31:59.375Z,101667.91
2023-02-16T10:34:51.803Z,101667.94
2023-02-16T10:37:47.061Z,101680.19
2023-02-16T10:40:21.058Z,101680.16
2023-02-16T10:43:05.160Z,101667.25
2023-02-16T10:45:42.033Z,101666.41
2023-02-16T10:48:10.627Z,101668.16
2023-02-16T10:50:40.198Z,101667.38
2023-02-16T10:53:13.632Z,101659.63
2023-02-16T10:55:40.153Z,101661.41
2023-02-16T10:58:17.586Z,101651.88
2023-02-16T11:01:11.882Z,101651.03
2023-02-16T11:03:46.531Z,101666.75
2023-02-16T11:06:17.392Z,101661.53
2023-02-16T11:09:04.271Z,101651.25
2023-02-16T11:11:37.147Z,101644.50
2023-02-16T11:14:08.975Z,101637.59
2023-02-16T11:16:35.991Z,101637.69
2023-02-16T11:19:24.713Z,101631.75
2023-02-16T11:21:56.389Z,101629.25
2023-02-16T11:24:30.639Z,101624.03
2023-02-16T11:27:02.112Z,101619.72
2023-02-16T11:29:29.190Z,101618.88
2023-02-16T11:31:56.550Z,101620.59
2023-02-16T11:34:31.461Z,101615.38
2023-02-16T11:37:25.334Z,101602.44
2023-02-16T11:39:55.166Z,101605.97
2023-02-16T11:42:26.409Z,101599.97
2023-02-16T11:44:55.533Z,101589.56
2023-02-16T11:47:31.839Z,101596.56
2023-02-16T11:50:18.877Z,101598.25
2023-02-16T11:52:51.297Z,101598.22
2023-02-16T11:55:28.797Z,101589.53
2023-02-16T11:57:57.082Z,101580.91
2023-02-16T12:00:26.433Z,101584.41
2023-02-16T12:03:06.482Z,101587.88
2023-02-16T12:05:56.528Z,101587.88
2023-02-16T12:09:04.337Z,101584.41
2023-02-16T12:11:54.236Z,101573.03
2023-02-16T12:14:34.077Z,101580.94
2023-02-16T12:17:18.699Z,101580.13
2023-02-16T12:20:00.462Z,101567.09
2023-02-16T12:23:12.188Z,101570.63
2023-02-16T12:26:26.643Z,101570.63
2023-02-16T12:29:23.035Z,101563.69
2023-02-16T12:32:10.899Z,101568.09
2023-02-16T12:34:59.240Z,101562.03
2023-02-16T12:37:28.584Z,101566.41
2023-02-16T12:40:17.793Z,101558.63
2023-02-16T12:43:24.158Z,101550.00
2023-02-16T12:45:51.164Z,101548.28
2023-02-16T12:48:42.594Z,101540.41
2023-02-16T12:51:24.403Z,101535.28
2023-02-16T12:54:04.099Z,101532.66
2023-02-16T12:56:41.113Z,101527.41
2023-02-16T12:59:18.063Z,101530.88
2023-02-16T13:01:47.884Z,101526.50
2023-02-16T13:04:58.793Z,101536.03
2023-02-16T13:07:36.059Z,101525.59
2023-02-16T13:10:30.710Z,101526.50
2023-02-16T13:13:10.614Z,101517.78
2023-02-16T13:15:40.873Z,101507.34
2023-02-16T13:18:21.992Z,101505.56
2023-02-16T13:20:56.541Z,101509.94
2023-02-16T13:23:32.021Z,101512.59
2023-02-16T13:26:11.262Z,101512.63
2023-02-16T13:28:53.163Z,101501.31
2023-02-16T13:31:25.794Z,101500.50
2023-02-16T13:34:16.778Z,101502.31
2023-02-16T13:37:09.338Z,101489.25
2023-02-16T13:40:00.461Z,101495.34
2023-02-16T13:42:57.438Z,101487.56
2023-02-16T13:45:45.841Z,101484.09
2023-02-16T13:48:26.329Z,101477.13
2023-02-16T13:51:06.868Z,101464.09
2023-02-16T13:53:39.228Z,101461.47
2023-02-16T13:56:22.578Z,101450.16
2023-02-16T13:58:51.640Z,101453.66
2023-02-16T14:01:43.327Z,101459.72
2023-02-16T14:04:22.226Z,101459.72
2023-02-16T14:07:18.293Z,101450.13
2023-02-16T14:09:49.203Z,101452.72
2023-02-16T14:12:31.887Z,101446.63
2023-02-16T14:15:05.599Z,101447.47
2023-02-16T14:17:35.552Z,101443.16
2023-02-16T14:20:07.405Z,101440.53
2023-02-16T14:22:42.935Z,101435.28
2023-02-16T14:25:39.269Z,101431.75
2023-02-16T14:28:31.720Z,101430.84
2023-02-16T14:31:02.126Z,101434.31
2023-02-16T14:33:33.104Z,101431.66
2023-02-16T14:35:59.458Z,101427.28
2023-02-16T14:38:42.223Z,101422.06
2023-02-16T14:41:25.839Z,101421.19
2023-02-16T14:44:11.659Z,101415.03
2023-02-16T14:46:59.518Z,101420.19
2023-02-16T14:49:50.972Z,101410.59
2023-02-16T14:52:20.335Z,101401.06
2023-02-16T14:55:02.461Z,101403.72
2023-02-16T14:57:47.769Z,101406.31
2023-02-16T15:00:44.428Z,101416.78
2023-02-16T15:03:18.545Z,101422.03
2023-02-16T15:06:34.531Z,101404.59
2023-02-16T15:09:06.413Z,101402.00
2023-02-16T15:11:56.746Z,101408.13
2023-02-16T15:14:25.656Z,101397.66
2023-02-16T15:16:53.889Z,101390.75
2023-02-16T15:19:28.454Z,101388.16
2023-02-16T15:22:27.413Z,101380.34
2023-02-16T15:24:59.293Z,101378.59
2023-02-16T15:27:26.321Z,101374.19
2023-02-16T15:30:24.058Z,101371.63
2023-02-16T15:32:53.510Z,101370.78
2023-02-16T15:35:31.712Z,101379.47
2023-02-16T15:38:18.592Z,101375.13
2023-02-16T15:40:45.454Z,101383.00
2023-02-16T15:43:19.869Z,101378.63
2023-02-16T15:45:52.756Z,101374.28
2023-02-16T15:48:27.822Z,101382.16
2023-02-16T15:50:57.421Z,101374.31
2023-02-16T15:53:34.982Z,101378.69
2023-02-16T15:56:05.902Z,101369.13
2023-02-16T15:58:33.696Z,101373.47
2023-02-16T16:01:00.633Z,101372.59
2023-02-16T16:03:27.238Z,101378.72
2023-02-16T16:06:03.190Z,101381.34
2023-02-16T16:08:31.030Z,101370.91
2023-02-16T16:10:58.252Z,101377.00
2023-02-16T16:13:28.398Z,101375.25
2023-02-16T16:16:01.649Z,101376.16
2023-02-16T16:18:37.379Z,101363.94
2023-02-16T16:21:11.726Z,101362.22
2023-02-16T16:23:38.209Z,101355.25
2023-02-16T16:26:23.535Z,101370.94
2023-02-16T16:28:51.231Z,101366.56
2023-02-16T16:31:20.748Z,101366.56
2023-02-16T16:33:54.720Z,101363.97
2023-02-16T16:36:40.467Z,101365.69
2023-02-16T16:39:18.415Z,101363.06
2023-02-16T16:42:01.390Z,101366.56
2023-02-16T16:44:40.174Z,101366.56
2023-02-16T16:47:27.004Z,101362.22
2023-02-16T16:50:05.842Z,101358.72
2023-02-16T16:52:45.872Z,101356.06
2023-02-16T16:55:20.212Z,101356.09
2023-02-16T16:57:48.350Z,101367.44
2023-02-16T17:00:15.888Z,101363.06
2023-02-16T17:02:42.373Z,101361.34
2023-02-16T17:05:09.102Z,101359.59
2023-02-16T17:07:35.513Z,101364.84
2023-02-16T17:10:02.315Z,101365.72
2023-02-16T17:12:29.912Z,101355.25
2023-02-16T17:14:56.707Z,101352.66
2023-02-16T17:17:23.336Z,101357.88
2023-02-16T17:19:49.807Z,101356.09
2023-02-16T17:22:19.742Z,101361.34
2023-02-16T17:24:46.981Z,101358.75
2023-02-16T17:27:14.041Z,101363.09
2023-02-16T17:29:49.214Z,101357.00
2023-02-16T17:32:15.754Z,101345.69
2023-02-16T17:34:42.359Z,101353.53
2023-02-16T17:37:10.215Z,101343.94
2023-02-16T17:39:36.712Z,101343.06
2023-02-16T17:42:03.266Z,101343.94
2023-02-16T17:44:29.937Z,101339.59
2023-02-16T17:46:56.591Z,101346.56
2023-02-16T17:49:23.146Z,101351.78
2023-02-16T17:51:49.613Z,101351.78
2023-02-16T17:54:16.101Z,101351.78
2023-02-16T17:56:45.164Z,101358.75
2023-02-16T17:59:15.543Z,101356.16
2023-02-16T18:01:45.750Z,101354.41
2023-02-16T18:04:12.286Z,101348.31
2023-02-16T18:06:38.967Z,101359.66
2023-02-16T18:09:05.561Z,101366.63
2023-02-16T18:11:32.070Z,101366.63
2023-02-16T18:13:59.218Z,101371.84
2023-02-16T18:16:27.504Z,101377.06
2023-02-16T18:18:54.679Z,101372.69
2023-02-16T18:21:21.118Z,101391.81
2023-02-16T18:23:47.665Z,101386.53
2023-02-16T18:26:15.585Z,101386.53
2023-02-16T18:28:42.796Z,101379.59
2023-02-16T18:31:09.432Z,101387.44
2023-02-16T18:33:36.236Z,101393.50
2023-02-16T18:36:03.854Z,101383.09
2023-02-16T18:38:30.892Z,101383.97
2023-02-16T18:40:57.482Z,101389.16
2023-02-16T18:43:24.179Z,101391.75
2023-02-16T18:45:50.661Z,101392.63
2023-02-16T18:48:17.212Z,101380.44
2023-02-16T18:50:43.769Z,101383.09
2023-02-16T18:53:10.223Z,101377.00
2023-02-16T18:55:36.661Z,101389.16
2023-02-16T18:58:07.802Z,101376.91
2023-02-16T19:00:34.704Z,101382.16
2023-02-16T19:03:01.250Z,101379.53
2023-02-16T19:05:27.858Z,101386.38
2023-02-16T19:07:54.316Z,101392.38
2023-02-16T19:10:20.787Z,101390.56
2023-02-16T19:12:47.302Z,101385.38
2023-02-16T19:15:13.889Z,101386.34
2023-02-16T19:17:40.408Z,101385.47
2023-02-16T19:20:09.895Z,101388.94
2023-02-16T19:22:37.241Z,101390.69
2023-02-16T19:25:07.244Z,101387.25
2023-02-16T19:27:34.496Z,101386.34
2023-02-16T19:30:01.183Z,101391.59
2023-02-16T19:32:27.754Z,101394.25
2023-02-16T19:34:54.249Z,101383.84
2023-02-16T19:37:21.063Z,101374.31
2023-02-16T19:39:47.519Z,101383.94
2023-02-16T19:42:13.998Z,101376.13
2023-02-16T19:44:40.772Z,101372.63
2023-02-16T19:47:07.656Z,101390.94
2023-02-16T19:49:35.630Z,101394.41
2023-02-16T19:52:04.148Z,101391.81
2023-02-16T19:54:34.750Z,101402.25
2023-02-16T19:57:02.638Z,101393.56
2023-02-16T19:59:29.286Z,101391.81
2023-02-16T20:01:55.857Z,101388.34
2023-02-16T20:04:22.945Z,101398.78
2023-02-16T20:06:49.640Z,101391.81
2023-02-16T20:09:17.926Z,101400.56
2023-02-16T20:11:44.578Z,101392.69
2023-02-16T20:14:11.441Z,101389.22
2023-02-16T20:16:38.450Z,101388.34
2023-02-16T20:19:05.141Z,101385.72
2023-02-16T20:21:31.724Z,101381.41
2023-02-16T20:24:01.084Z,101374.44
2023-02-16T20:26:32.959Z,101362.22
2023-02-16T20:29:00.471Z,101363.97
2023-02-16T20:31:31.256Z,101360.47
2023-02-16T20:33:58.353Z,101357.88
2023-02-16T20:36:25.097Z,101353.53
2023-02-16T20:38:51.670Z,101350.91
2023-02-16T20:41:19.072Z,101352.66
2023-02-16T20:43:45.931Z,101354.41
2023-02-16T20:46:13.857Z,101350.94
2023-02-16T20:48:40.453Z,101337.00
2023-02-16T20:51:08.052Z,101343.13
2023-02-16T20:53:36.039Z,101350.06
2023-02-16T20:56:19.141Z,101347.47
2023-02-16T20:58:47.297Z,101347.44
2023-02-16T21:01:52.297Z,101353.53
2023-02-16T21:04:19.511Z,101350.03
2023-02-16T21:06:46.040Z,101361.34
2023-02-16T21:09:12.834Z,101357.00
2023-02-16T21:11:40.053Z,101357.88
2023-02-16T21:14:08.425Z,101351.78
2023-02-16T21:16:35.329Z,101356.09
2023-02-16T21:19:04.080Z,101360.41
2023-02-16T21:21:32.017Z,101356.91
2023-02-16T21:23:58.518Z,101349.06
2023-02-16T21:26:26.068Z,101348.19
2023-02-16T21:28:53.207Z,101340.38
2023-02-16T21:31:23.397Z,101335.16
2023-02-16T21:33:50.740Z,101344.75
2023-02-16T21:36:21.102Z,101336.06
2023-02-16T21:38:48.475Z,101340.41
2023-02-16T21:41:28.554Z,101334.31
2023-02-16T21:43:57.023Z,101334.28
2023-02-16T21:46:24.711Z,101330.81
2023-02-16T21:48:51.516Z,101335.16
2023-02-16T21:51:21.482Z,101325.59
2023-02-16T21:53:48.444Z,101330.84
2023-02-16T21:56:26.766Z,101324.75
2023-02-16T21:58:53.350Z,101327.34
2023-02-16T22:01:22.230Z,101330.84
2023-02-16T22:03:48.955Z,101329.06
2023-02-16T22:06:15.475Z,101322.06
2023-02-16T22:08:41.975Z,101320.34
2023-02-16T22:11:11.294Z,101322.09
2023-02-16T22:13:38.566Z,101313.41
2023-02-16T22:16:10.279Z,101312.53
2023-02-16T22:18:37.543Z,101313.41
2023-02-16T22:21:05.282Z,101309.94
2023-02-16T22:23:31.948Z,101318.66
2023-02-16T22:25:58.390Z,101323.81
2023-02-16T22:28:24.932Z,101311.59
2023-02-16T22:30:51.385Z,101306.38
2023-02-16T22:33:17.878Z,101315.00
2023-02-16T22:35:44.356Z,101309.78
2023-02-16T22:38:10.830Z,101312.34
2023-02-16T22:40:37.328Z,101302.72
2023-02-16T22:43:03.829Z,101301.88
2023-02-16T22:45:30.559Z,101304.47
2023-02-16T22:47:57.158Z,101305.31
2023-02-16T22:50:23.842Z,101307.84
2023-02-16T22:52:50.299Z,101311.34
2023-02-16T22:55:16.857Z,101310.47
2023-02-16T22:57:43.277Z,101315.72
2023-02-16T23:00:14.669Z,101306.16
2023-02-16T23:02:41.251Z,101304.38
2023-02-16T23:05:07.988Z,101299.94
2023-02-16T23:07:35.258Z,101298.22
2023-02-16T23:10:02.076Z,101302.56
2023-02-16T23:12:28.586Z,101299.03
2023-02-16T23:14:55.569Z,101288.63
2023-02-16T23:17:22.054Z,101296.47
2023-02-16T23:19:50.772Z,101304.22
2023-02-16T23:22:17.368Z,101299.97
2023-02-16T23:24:43.864Z,101308.72
2023-02-16T23:27:10.340Z,101299.88
2023-02-16T23:29:36.832Z,101306.88
2023-02-16T23:32:05.790Z,101300.72
2023-02-16T23:34:32.213Z,101312.97
2023-02-16T23:36:58.746Z,101307.75
2023-02-16T23:39:25.197Z,101305.06
2023-02-16T23:41:51.633Z,101310.28
2023-02-16T23:44:18.086Z,101310.28
2023-02-16T23:46:44.742Z,101298.03
2023-02-16T23:49:11.223Z,101292.81
2023-02-16T23:51:37.679Z,101292.00
2023-02-16T23:54:04.334Z,101297.22
2023-02-16T23:56:30.950Z,101293.78
2023-02-16T23:59:00.506Z,101291.13
